sensor_id;sensor_type;location;lat;lon;timestamp;P1;durP1;ratioP1;P2;durP2;ratioP2
36253;SDS011;22291;52.250;21.228;2022-12-04T00:00:00;78.40;;;30.82;;
36253;SDS011;22291;52.250;21.228;2022-12-04T00:02:29;83.05;;;32.73;;
36253;SDS011;22291;52.250;21.228;2022-12-04T00:04:55;85.57;;;33.08;;
36253;SDS011;22291;52.250;21.228;2022-12-04T00:07:21;89.77;;;32.65;;
36253;SDS011;22291;52.250;21.228;2022-12-04T00:09:48;88.20;;;32.33;;
36253;SDS011;22291;52.250;21.228;2022-12-04T00:12:14;85.05;;;32.70;;
36253;SDS011;22291;52.250;21.228;2022-12-04T00:14:40;76.90;;;31.35;;
36253;SDS011;22291;52.250;21.228;2022-12-04T00:17:06;76.95;;;30.88;;
36253;SDS011;22291;52.250;21.228;2022-12-04T00:19:32;88.80;;;33.05;;
36253;SDS011;22291;52.250;21.228;2022-12-04T00:21:58;77.15;;;32.05;;
36253;SDS011;22291;52.250;21.228;2022-12-04T00:24:25;72.90;;;30.82;;
36253;SDS011;22291;52.250;21.228;2022-12-04T00:26:50;79.80;;;31.27;;
36253;SDS011;22291;52.250;21.228;2022-12-04T00:29:17;76.33;;;29.37;;
36253;SDS011;22291;52.250;21.228;2022-12-04T00:31:43;74.42;;;28.95;;
36253;SDS011;22291;52.250;21.228;2022-12-04T00:34:10;70.62;;;29.65;;
36253;SDS011;22291;52.250;21.228;2022-12-04T00:36:36;74.82;;;30.92;;
36253;SDS011;22291;52.250;21.228;2022-12-04T00:39:03;76.45;;;28.90;;
36253;SDS011;22291;52.250;21.228;2022-12-04T00:41:31;74.17;;;31.97;;
36253;SDS011;22291;52.250;21.228;2022-12-04T00:43:58;76.12;;;30.43;;
36253;SDS011;22291;52.250;21.228;2022-12-04T00:46:27;69.05;;;28.38;;
36253;SDS011;22291;52.250;21.228;2022-12-04T00:48:54;81.72;;;30.00;;
36253;SDS011;22291;52.250;21.228;2022-12-04T00:51:22;71.47;;;29.63;;
36253;SDS011;22291;52.250;21.228;2022-12-04T00:53:50;75.65;;;30.20;;
36253;SDS011;22291;52.250;21.228;2022-12-04T00:56:19;79.60;;;31.82;;
36253;SDS011;22291;52.250;21.228;2022-12-04T00:58:51;71.45;;;30.08;;
36253;SDS011;22291;52.250;21.228;2022-12-04T01:01:20;74.53;;;28.90;;
36253;SDS011;22291;52.250;21.228;2022-12-04T01:03:49;71.17;;;28.67;;
36253;SDS011;22291;52.250;21.228;2022-12-04T01:06:24;72.15;;;29.20;;
36253;SDS011;22291;52.250;21.228;2022-12-04T01:08:51;69.70;;;28.30;;
36253;SDS011;22291;52.250;21.228;2022-12-04T01:11:19;74.45;;;28.80;;
36253;SDS011;22291;52.250;21.228;2022-12-04T01:13:48;79.82;;;29.60;;
36253;SDS011;22291;52.250;21.228;2022-12-04T01:16:22;66.82;;;27.30;;
36253;SDS011;22291;52.250;21.228;2022-12-04T01:18:50;75.08;;;28.02;;
36253;SDS011;22291;52.250;21.228;2022-12-04T01:21:17;66.12;;;25.88;;
36253;SDS011;22291;52.250;21.228;2022-12-04T01:23:45;67.55;;;27.93;;
36253;SDS011;22291;52.250;21.228;2022-12-04T01:26:12;72.27;;;27.05;;
36253;SDS011;22291;52.250;21.228;2022-12-04T01:28:40;69.95;;;28.40;;
36253;SDS011;22291;52.250;21.228;2022-12-04T01:31:12;68.20;;;27.82;;
36253;SDS011;22291;52.250;21.228;2022-12-04T01:33:40;62.95;;;25.75;;
36253;SDS011;22291;52.250;21.228;2022-12-04T01:36:10;69.15;;;26.85;;
36253;SDS011;22291;52.250;21.228;2022-12-04T01:38:40;70.40;;;27.62;;
36253;SDS011;22291;52.250;21.228;2022-12-04T01:41:07;66.40;;;26.77;;
36253;SDS011;22291;52.250;21.228;2022-12-04T01:43:35;65.83;;;28.03;;
36253;SDS011;22291;52.250;21.228;2022-12-04T01:46:04;71.30;;;27.40;;
36253;SDS011;22291;52.250;21.228;2022-12-04T01:48:33;72.67;;;27.58;;
36253;SDS011;22291;52.250;21.228;2022-12-04T01:53:58;70.50;;;26.77;;
36253;SDS011;22291;52.250;21.228;2022-12-04T01:56:30;67.17;;;27.37;;
36253;SDS011;22291;52.250;21.228;2022-12-04T01:58:56;67.45;;;28.02;;
36253;SDS011;22291;52.250;21.228;2022-12-04T02:01:26;69.60;;;27.00;;
36253;SDS011;22291;52.250;21.228;2022-12-04T02:03:57;63.90;;;26.02;;
36253;SDS011;22291;52.250;21.228;2022-12-04T02:06:25;61.92;;;26.23;;
36253;SDS011;22291;52.250;21.228;2022-12-04T02:08:51;61.70;;;24.43;;
36253;SDS011;22291;52.250;21.228;2022-12-04T02:13:58;64.62;;;25.12;;
36253;SDS011;22291;52.250;21.228;2022-12-04T02:16:36;60.78;;;24.02;;
36253;SDS011;22291;52.250;21.228;2022-12-04T02:22:23;60.28;;;24.25;;
36253;SDS011;22291;52.250;21.228;2022-12-04T02:25:12;62.38;;;24.45;;
36253;SDS011;22291;52.250;21.228;2022-12-04T02:30:13;58.58;;;23.90;;
36253;SDS011;22291;52.250;21.228;2022-12-04T02:35:32;61.13;;;24.60;;
36253;SDS011;22291;52.250;21.228;2022-12-04T02:38:07;67.25;;;26.05;;
36253;SDS011;22291;52.250;21.228;2022-12-04T02:43:28;63.17;;;25.08;;
36253;SDS011;22291;52.250;21.228;2022-12-04T02:45:59;62.73;;;24.70;;
36253;SDS011;22291;52.250;21.228;2022-12-04T02:48:25;73.40;;;27.50;;
36253;SDS011;22291;52.250;21.228;2022-12-04T02:50:55;63.50;;;26.33;;
36253;SDS011;22291;52.250;21.228;2022-12-04T02:53:27;64.77;;;25.15;;
36253;SDS011;22291;52.250;21.228;2022-12-04T02:56:01;66.77;;;26.17;;
36253;SDS011;22291;52.250;21.228;2022-12-04T03:01:28;64.13;;;24.40;;
36253;SDS011;22291;52.250;21.228;2022-12-04T03:03:59;62.95;;;26.10;;
36253;SDS011;22291;52.250;21.228;2022-12-04T03:06:29;67.03;;;26.45;;
36253;SDS011;22291;52.250;21.228;2022-12-04T03:09:01;68.57;;;25.35;;
36253;SDS011;22291;52.250;21.228;2022-12-04T03:11:34;64.47;;;25.15;;
36253;SDS011;22291;52.250;21.228;2022-12-04T03:14:08;60.65;;;25.62;;
36253;SDS011;22291;52.250;21.228;2022-12-04T03:16:49;64.95;;;26.35;;
36253;SDS011;22291;52.250;21.228;2022-12-04T03:19:21;64.05;;;25.10;;
36253;SDS011;22291;52.250;21.228;2022-12-04T03:21:52;67.25;;;27.37;;
36253;SDS011;22291;52.250;21.228;2022-12-04T03:24:26;69.70;;;27.22;;
36253;SDS011;22291;52.250;21.228;2022-12-04T03:26:58;67.58;;;27.10;;
36253;SDS011;22291;52.250;21.228;2022-12-04T03:35:04;68.30;;;26.37;;
36253;SDS011;22291;52.250;21.228;2022-12-04T03:48:16;66.35;;;24.50;;
36253;SDS011;22291;52.250;21.228;2022-12-04T03:53:59;58.65;;;23.77;;
36253;SDS011;22291;52.250;21.228;2022-12-04T03:56:28;57.48;;;23.55;;
36253;SDS011;22291;52.250;21.228;2022-12-04T03:58:59;61.88;;;24.00;;
36253;SDS011;22291;52.250;21.228;2022-12-04T04:01:34;59.65;;;24.15;;
36253;SDS011;22291;52.250;21.228;2022-12-04T04:04:05;60.15;;;24.77;;
36253;SDS011;22291;52.250;21.228;2022-12-04T04:06:38;51.92;;;21.95;;
36253;SDS011;22291;52.250;21.228;2022-12-04T04:09:09;54.85;;;22.58;;
36253;SDS011;22291;52.250;21.228;2022-12-04T04:11:47;59.42;;;23.55;;
36253;SDS011;22291;52.250;21.228;2022-12-04T04:14:21;51.80;;;23.60;;
36253;SDS011;22291;52.250;21.228;2022-12-04T04:17:11;57.62;;;22.75;;
36253;SDS011;22291;52.250;21.228;2022-12-04T04:20:02;57.03;;;23.93;;
36253;SDS011;22291;52.250;21.228;2022-12-04T04:22:49;60.55;;;23.55;;
36253;SDS011;22291;52.250;21.228;2022-12-04T04:25:38;58.73;;;23.22;;
36253;SDS011;22291;52.250;21.228;2022-12-04T04:28:26;58.15;;;24.63;;
36253;SDS011;22291;52.250;21.228;2022-12-04T04:31:07;60.80;;;23.22;;
36253;SDS011;22291;52.250;21.228;2022-12-04T04:39:38;62.33;;;23.75;;
36253;SDS011;22291;52.250;21.228;2022-12-04T04:42:21;58.85;;;23.57;;
36253;SDS011;22291;52.250;21.228;2022-12-04T04:47:40;68.12;;;22.82;;
36253;SDS011;22291;52.250;21.228;2022-12-04T04:50:15;58.05;;;24.05;;
36253;SDS011;22291;52.250;21.228;2022-12-04T04:52:45;61.23;;;24.15;;
36253;SDS011;22291;52.250;21.228;2022-12-04T04:55:15;53.70;;;22.98;;
36253;SDS011;22291;52.250;21.228;2022-12-04T04:57:44;58.33;;;22.50;;
36253;SDS011;22291;52.250;21.228;2022-12-04T05:00:16;60.92;;;23.62;;
36253;SDS011;22291;52.250;21.228;2022-12-04T05:02:44;58.42;;;22.40;;
36253;SDS011;22291;52.250;21.228;2022-12-04T05:05:11;60.75;;;23.77;;
36253;SDS011;22291;52.250;21.228;2022-12-04T05:07:38;60.45;;;23.50;;
36253;SDS011;22291;52.250;21.228;2022-12-04T05:10:05;56.48;;;24.00;;
36253;SDS011;22291;52.250;21.228;2022-12-04T05:12:33;59.13;;;22.67;;
36253;SDS011;22291;52.250;21.228;2022-12-04T05:15:00;54.18;;;22.45;;
36253;SDS011;22291;52.250;21.228;2022-12-04T05:17:26;51.77;;;21.77;;
36253;SDS011;22291;52.250;21.228;2022-12-04T05:19:53;55.48;;;22.87;;
36253;SDS011;22291;52.250;21.228;2022-12-04T05:22:29;62.67;;;23.30;;
36253;SDS011;22291;52.250;21.228;2022-12-04T05:24:57;53.63;;;21.45;;
36253;SDS011;22291;52.250;21.228;2022-12-04T05:27:25;54.83;;;23.62;;
36253;SDS011;22291;52.250;21.228;2022-12-04T05:29:53;57.08;;;21.20;;
36253;SDS011;22291;52.250;21.228;2022-12-04T05:32:22;54.75;;;21.93;;
36253;SDS011;22291;52.250;21.228;2022-12-04T05:34:52;49.98;;;22.37;;
36253;SDS011;22291;52.250;21.228;2022-12-04T05:37:20;58.98;;;23.07;;
36253;SDS011;22291;52.250;21.228;2022-12-04T05:39:47;54.88;;;23.00;;
36253;SDS011;22291;52.250;21.228;2022-12-04T05:42:13;52.90;;;21.62;;
36253;SDS011;22291;52.250;21.228;2022-12-04T05:44:39;56.33;;;21.40;;
36253;SDS011;22291;52.250;21.228;2022-12-04T05:47:05;55.40;;;22.73;;
36253;SDS011;22291;52.250;21.228;2022-12-04T05:49:32;56.60;;;22.75;;
36253;SDS011;22291;52.250;21.228;2022-12-04T05:52:00;53.28;;;21.23;;
36253;SDS011;22291;52.250;21.228;2022-12-04T05:54:29;48.10;;;20.80;;
36253;SDS011;22291;52.250;21.228;2022-12-04T05:56:55;52.88;;;21.75;;
36253;SDS011;22291;52.250;21.228;2022-12-04T05:59:21;56.03;;;22.20;;
36253;SDS011;22291;52.250;21.228;2022-12-04T06:01:48;63.42;;;22.27;;
36253;SDS011;22291;52.250;21.228;2022-12-04T06:04:14;58.38;;;21.65;;
36253;SDS011;22291;52.250;21.228;2022-12-04T06:06:41;57.10;;;22.93;;
36253;SDS011;22291;52.250;21.228;2022-12-04T06:09:07;57.00;;;22.45;;
36253;SDS011;22291;52.250;21.228;2022-12-04T06:11:35;53.30;;;22.20;;
36253;SDS011;22291;52.250;21.228;2022-12-04T06:14:04;54.88;;;22.87;;
36253;SDS011;22291;52.250;21.228;2022-12-04T06:16:34;55.73;;;22.32;;
36253;SDS011;22291;52.250;21.228;2022-12-04T06:19:05;57.27;;;22.93;;
36253;SDS011;22291;52.250;21.228;2022-12-04T06:21:35;53.60;;;20.52;;
36253;SDS011;22291;52.250;21.228;2022-12-04T06:24:04;51.48;;;21.80;;
36253;SDS011;22291;52.250;21.228;2022-12-04T06:26:33;59.40;;;21.77;;
36253;SDS011;22291;52.250;21.228;2022-12-04T06:28:59;45.30;;;21.20;;
36253;SDS011;22291;52.250;21.228;2022-12-04T06:31:27;61.90;;;23.30;;
36253;SDS011;22291;52.250;21.228;2022-12-04T06:33:54;58.25;;;23.22;;
36253;SDS011;22291;52.250;21.228;2022-12-04T06:36:23;64.00;;;23.38;;
36253;SDS011;22291;52.250;21.228;2022-12-04T06:38:51;55.75;;;23.00;;
36253;SDS011;22291;52.250;21.228;2022-12-04T06:41:20;57.38;;;22.95;;
36253;SDS011;22291;52.250;21.228;2022-12-04T06:43:47;60.35;;;22.22;;
36253;SDS011;22291;52.250;21.228;2022-12-04T06:46:18;56.73;;;23.18;;
36253;SDS011;22291;52.250;21.228;2022-12-04T06:48:47;56.50;;;23.25;;
36253;SDS011;22291;52.250;21.228;2022-12-04T06:51:16;60.85;;;24.27;;
36253;SDS011;22291;52.250;21.228;2022-12-04T06:53:45;55.10;;;22.80;;
36253;SDS011;22291;52.250;21.228;2022-12-04T06:56:14;57.65;;;22.77;;
36253;SDS011;22291;52.250;21.228;2022-12-04T06:58:47;65.15;;;23.40;;
36253;SDS011;22291;52.250;21.228;2022-12-04T07:01:16;55.83;;;23.18;;
36253;SDS011;22291;52.250;21.228;2022-12-04T07:03:46;54.77;;;21.70;;
36253;SDS011;22291;52.250;21.228;2022-12-04T07:08:59;50.83;;;21.15;;
36253;SDS011;22291;52.250;21.228;2022-12-04T07:11:30;56.10;;;21.80;;
36253;SDS011;22291;52.250;21.228;2022-12-04T07:13:57;49.08;;;20.05;;
36253;SDS011;22291;52.250;21.228;2022-12-04T07:16:24;55.17;;;22.37;;
36253;SDS011;22291;52.250;21.228;2022-12-04T07:18:53;54.53;;;22.45;;
36253;SDS011;22291;52.250;21.228;2022-12-04T07:21:22;49.35;;;19.60;;
36253;SDS011;22291;52.250;21.228;2022-12-04T07:23:53;53.55;;;22.37;;
36253;SDS011;22291;52.250;21.228;2022-12-04T07:26:22;45.85;;;21.82;;
36253;SDS011;22291;52.250;21.228;2022-12-04T07:28:50;46.00;;;20.30;;
36253;SDS011;22291;52.250;21.228;2022-12-04T07:31:19;45.70;;;19.70;;
36253;SDS011;22291;52.250;21.228;2022-12-04T07:33:47;55.88;;;23.20;;
36253;SDS011;22291;52.250;21.228;2022-12-04T07:36:16;46.85;;;20.92;;
36253;SDS011;22291;52.250;21.228;2022-12-04T07:41:11;46.65;;;21.75;;
36253;SDS011;22291;52.250;21.228;2022-12-04T07:43:39;49.80;;;22.17;;
36253;SDS011;22291;52.250;21.228;2022-12-04T07:46:10;43.40;;;20.60;;
36253;SDS011;22291;52.250;21.228;2022-12-04T07:48:40;46.95;;;21.62;;
36253;SDS011;22291;52.250;21.228;2022-12-04T07:53:46;48.65;;;21.10;;
36253;SDS011;22291;52.250;21.228;2022-12-04T07:56:14;51.73;;;20.57;;
36253;SDS011;22291;52.250;21.228;2022-12-04T07:58:42;47.17;;;21.37;;
36253;SDS011;22291;52.250;21.228;2022-12-04T08:01:13;46.90;;;22.50;;
36253;SDS011;22291;52.250;21.228;2022-12-04T08:03:45;51.95;;;23.65;;
36253;SDS011;22291;52.250;21.228;2022-12-04T08:06:16;53.10;;;22.50;;
36253;SDS011;22291;52.250;21.228;2022-12-04T08:08:46;48.38;;;21.65;;
36253;SDS011;22291;52.250;21.228;2022-12-04T08:11:17;47.15;;;23.10;;
36253;SDS011;22291;52.250;21.228;2022-12-04T08:13:58;44.53;;;20.97;;
36253;SDS011;22291;52.250;21.228;2022-12-04T08:16:27;68.75;;;36.75;;
36253;SDS011;22291;52.250;21.228;2022-12-04T08:18:58;50.08;;;24.52;;
36253;SDS011;22291;52.250;21.228;2022-12-04T08:21:31;50.05;;;23.55;;
36253;SDS011;22291;52.250;21.228;2022-12-04T08:24:04;44.08;;;21.52;;
36253;SDS011;22291;52.250;21.228;2022-12-04T08:26:32;51.42;;;22.07;;
36253;SDS011;22291;52.250;21.228;2022-12-04T08:29:02;49.53;;;24.18;;
36253;SDS011;22291;52.250;21.228;2022-12-04T08:31:34;50.38;;;22.90;;
36253;SDS011;22291;52.250;21.228;2022-12-04T08:34:03;51.75;;;23.27;;
36253;SDS011;22291;52.250;21.228;2022-12-04T08:36:32;48.45;;;23.45;;
36253;SDS011;22291;52.250;21.228;2022-12-04T08:39:02;48.48;;;22.87;;
36253;SDS011;22291;52.250;21.228;2022-12-04T08:41:31;55.48;;;24.95;;
36253;SDS011;22291;52.250;21.228;2022-12-04T08:43:58;53.80;;;23.42;;
36253;SDS011;22291;52.250;21.228;2022-12-04T08:46:28;52.00;;;24.27;;
36253;SDS011;22291;52.250;21.228;2022-12-04T08:48:56;47.62;;;23.42;;
36253;SDS011;22291;52.250;21.228;2022-12-04T08:51:30;49.75;;;23.18;;
36253;SDS011;22291;52.250;21.228;2022-12-04T08:53:57;47.65;;;23.12;;
36253;SDS011;22291;52.250;21.228;2022-12-04T08:56:28;47.40;;;23.18;;
36253;SDS011;22291;52.250;21.228;2022-12-04T08:59:01;52.50;;;25.37;;
36253;SDS011;22291;52.250;21.228;2022-12-04T09:01:31;47.80;;;23.55;;
36253;SDS011;22291;52.250;21.228;2022-12-04T09:03:57;49.60;;;24.75;;
36253;SDS011;22291;52.250;21.228;2022-12-04T09:06:27;57.03;;;25.92;;
36253;SDS011;22291;52.250;21.228;2022-12-04T09:08:53;50.80;;;24.18;;
36253;SDS011;22291;52.250;21.228;2022-12-04T09:11:27;57.20;;;26.40;;
36253;SDS011;22291;52.250;21.228;2022-12-04T09:13:57;53.45;;;24.67;;
36253;SDS011;22291;52.250;21.228;2022-12-04T09:16:28;57.27;;;25.20;;
36253;SDS011;22291;52.250;21.228;2022-12-04T09:18:58;52.53;;;25.95;;
36253;SDS011;22291;52.250;21.228;2022-12-04T09:21:24;49.10;;;24.43;;
36253;SDS011;22291;52.250;21.228;2022-12-04T09:23:50;48.52;;;24.25;;
36253;SDS011;22291;52.250;21.228;2022-12-04T09:26:24;54.05;;;23.75;;
36253;SDS011;22291;52.250;21.228;2022-12-04T09:28:57;48.02;;;23.12;;
36253;SDS011;22291;52.250;21.228;2022-12-04T09:31:25;47.15;;;22.48;;
36253;SDS011;22291;52.250;21.228;2022-12-04T09:33:52;48.92;;;23.50;;
36253;SDS011;22291;52.250;21.228;2022-12-04T09:36:19;52.65;;;23.12;;
36253;SDS011;22291;52.250;21.228;2022-12-04T09:38:47;46.05;;;22.98;;
36253;SDS011;22291;52.250;21.228;2022-12-04T09:43:59;44.18;;;22.22;;
36253;SDS011;22291;52.250;21.228;2022-12-04T09:46:50;47.15;;;22.65;;
36253;SDS011;22291;52.250;21.228;2022-12-04T09:49:38;44.53;;;22.70;;
36253;SDS011;22291;52.250;21.228;2022-12-04T09:55:11;42.38;;;21.37;;
36253;SDS011;22291;52.250;21.228;2022-12-04T09:57:42;43.28;;;21.77;;
36253;SDS011;22291;52.250;21.228;2022-12-04T10:00:13;43.63;;;21.25;;
36253;SDS011;22291;52.250;21.228;2022-12-04T10:02:50;42.40;;;20.68;;
36253;SDS011;22291;52.250;21.228;2022-12-04T10:10:56;46.45;;;22.55;;
36253;SDS011;22291;52.250;21.228;2022-12-04T10:19:28;46.90;;;21.02;;
36253;SDS011;22291;52.250;21.228;2022-12-04T10:24:52;49.83;;;22.98;;
36253;SDS011;22291;52.250;21.228;2022-12-04T10:27:29;47.17;;;22.27;;
36253;SDS011;22291;52.250;21.228;2022-12-04T10:30:20;41.53;;;22.02;;
36253;SDS011;22291;52.250;21.228;2022-12-04T10:32:54;39.00;;;22.67;;
36253;SDS011;22291;52.250;21.228;2022-12-04T10:35:32;44.18;;;22.82;;
36253;SDS011;22291;52.250;21.228;2022-12-04T10:38:03;32.88;;;17.27;;
36253;SDS011;22291;52.250;21.228;2022-12-04T10:40:42;46.80;;;25.60;;
36253;SDS011;22291;52.250;21.228;2022-12-04T10:46:06;43.48;;;22.75;;
36253;SDS011;22291;52.250;21.228;2022-12-04T10:48:39;41.55;;;21.93;;
36253;SDS011;22291;52.250;21.228;2022-12-04T10:51:13;42.90;;;21.68;;
36253;SDS011;22291;52.250;21.228;2022-12-04T10:53:46;44.40;;;25.02;;
36253;SDS011;22291;52.250;21.228;2022-12-04T10:56:15;40.80;;;21.93;;
36253;SDS011;22291;52.250;21.228;2022-12-04T10:58:55;41.70;;;21.95;;
36253;SDS011;22291;52.250;21.228;2022-12-04T11:01:24;40.98;;;22.82;;
36253;SDS011;22291;52.250;21.228;2022-12-04T11:03:58;39.85;;;21.90;;
36253;SDS011;22291;52.250;21.228;2022-12-04T11:06:26;40.48;;;22.45;;
36253;SDS011;22291;52.250;21.228;2022-12-04T11:08:53;39.08;;;21.42;;
36253;SDS011;22291;52.250;21.228;2022-12-04T11:11:32;39.92;;;21.65;;
36253;SDS011;22291;52.250;21.228;2022-12-04T11:14:02;42.67;;;23.83;;
36253;SDS011;22291;52.250;21.228;2022-12-04T11:16:46;39.45;;;22.25;;
36253;SDS011;22291;52.250;21.228;2022-12-04T11:19:18;35.13;;;20.62;;
36253;SDS011;22291;52.250;21.228;2022-12-04T11:21:52;41.68;;;21.90;;
36253;SDS011;22291;52.250;21.228;2022-12-04T11:24:41;41.85;;;22.42;;
36253;SDS011;22291;52.250;21.228;2022-12-04T11:26:59;46.35;;;25.72;;
36253;SDS011;22291;52.250;21.228;2022-12-04T11:29:36;39.80;;;21.80;;
36253;SDS011;22291;52.250;21.228;2022-12-04T11:32:03;37.55;;;21.33;;
36253;SDS011;22291;52.250;21.228;2022-12-04T11:34:36;51.53;;;26.37;;
36253;SDS011;22291;52.250;21.228;2022-12-04T11:37:05;41.20;;;21.95;;
36253;SDS011;22291;52.250;21.228;2022-12-04T11:39:41;40.10;;;21.60;;
36253;SDS011;22291;52.250;21.228;2022-12-04T11:44:58;38.67;;;20.25;;
36253;SDS011;22291;52.250;21.228;2022-12-04T11:47:29;38.48;;;20.08;;
36253;SDS011;22291;52.250;21.228;2022-12-04T11:49:58;42.48;;;23.47;;
36253;SDS011;22291;52.250;21.228;2022-12-04T11:52:47;37.38;;;20.77;;
36253;SDS011;22291;52.250;21.228;2022-12-04T12:01:14;38.92;;;20.57;;
36253;SDS011;22291;52.250;21.228;2022-12-04T12:04:23;46.02;;;22.20;;
36253;SDS011;22291;52.250;21.228;2022-12-04T12:07:08;38.42;;;21.35;;
36253;SDS011;22291;52.250;21.228;2022-12-04T12:26:15;44.00;;;22.90;;
36253;SDS011;22291;52.250;21.228;2022-12-04T12:34:17;42.58;;;20.95;;
36253;SDS011;22291;52.250;21.228;2022-12-04T12:36:56;40.08;;;21.25;;
36253;SDS011;22291;52.250;21.228;2022-12-04T12:39:37;37.15;;;20.75;;
36253;SDS011;22291;52.250;21.228;2022-12-04T12:42:03;38.53;;;20.55;;
36253;SDS011;22291;52.250;21.228;2022-12-04T12:47:20;40.88;;;20.90;;
36253;SDS011;22291;52.250;21.228;2022-12-04T12:50:03;42.05;;;21.48;;
36253;SDS011;22291;52.250;21.228;2022-12-04T12:58:03;58.08;;;26.62;;
36253;SDS011;22291;52.250;21.228;2022-12-04T13:00:48;44.65;;;22.05;;
36253;SDS011;22291;52.250;21.228;2022-12-04T13:06:08;39.40;;;23.10;;
36253;SDS011;22291;52.250;21.228;2022-12-04T13:08:38;42.50;;;22.30;;
36253;SDS011;22291;52.250;21.228;2022-12-04T13:11:23;41.50;;;22.02;;
36253;SDS011;22291;52.250;21.228;2022-12-04T13:13:57;44.35;;;23.57;;
36253;SDS011;22291;52.250;21.228;2022-12-04T13:16:24;40.12;;;21.35;;
36253;SDS011;22291;52.250;21.228;2022-12-04T13:19:12;35.98;;;19.92;;
36253;SDS011;22291;52.250;21.228;2022-12-04T13:27:53;37.15;;;20.40;;
36253;SDS011;22291;52.250;21.228;2022-12-04T13:33:57;33.55;;;18.07;;
36253;SDS011;22291;52.250;21.228;2022-12-04T13:43:04;34.83;;;19.82;;
36253;SDS011;22291;52.250;21.228;2022-12-04T13:45:43;38.25;;;21.70;;
36253;SDS011;22291;52.250;21.228;2022-12-04T13:48:12;37.13;;;21.07;;
36253;SDS011;22291;52.250;21.228;2022-12-04T13:50:39;34.25;;;19.95;;
36253;SDS011;22291;52.250;21.228;2022-12-04T13:53:27;37.63;;;20.35;;
36253;SDS011;22291;52.250;21.228;2022-12-04T13:55:57;33.20;;;19.80;;
36253;SDS011;22291;52.250;21.228;2022-12-04T13:58:26;38.90;;;21.97;;
36253;SDS011;22291;52.250;21.228;2022-12-04T14:01:39;34.58;;;19.77;;
36253;SDS011;22291;52.250;21.228;2022-12-04T14:03:31;32.55;;;18.85;;
36253;SDS011;22291;52.250;21.228;2022-12-04T14:06:02;37.48;;;20.72;;
36253;SDS011;22291;52.250;21.228;2022-12-04T14:08:36;35.45;;;19.95;;
36253;SDS011;22291;52.250;21.228;2022-12-04T14:11:08;33.30;;;19.00;;
36253;SDS011;22291;52.250;21.228;2022-12-04T14:13:46;32.80;;;19.40;;
36253;SDS011;22291;52.250;21.228;2022-12-04T14:18:54;34.20;;;19.32;;
36253;SDS011;22291;52.250;21.228;2022-12-04T14:21:24;33.73;;;19.12;;
36253;SDS011;22291;52.250;21.228;2022-12-04T14:23:51;37.93;;;21.55;;
36253;SDS011;22291;52.250;21.228;2022-12-04T14:26:19;38.42;;;21.23;;
36253;SDS011;22291;52.250;21.228;2022-12-04T14:28:49;34.05;;;18.90;;
36253;SDS011;22291;52.250;21.228;2022-12-04T14:31:36;36.48;;;20.20;;
36253;SDS011;22291;52.250;21.228;2022-12-04T14:36:59;37.25;;;20.32;;
36253;SDS011;22291;52.250;21.228;2022-12-04T14:44:55;34.65;;;20.05;;
36253;SDS011;22291;52.250;21.228;2022-12-04T14:50:30;33.88;;;19.40;;
36253;SDS011;22291;52.250;21.228;2022-12-04T14:56:22;32.20;;;18.70;;
36253;SDS011;22291;52.250;21.228;2022-12-04T14:59:20;33.60;;;19.60;;
36253;SDS011;22291;52.250;21.228;2022-12-04T15:01:50;37.13;;;19.75;;
36253;SDS011;22291;52.250;21.228;2022-12-04T15:04:24;33.80;;;19.57;;
36253;SDS011;22291;52.250;21.228;2022-12-04T15:06:58;38.35;;;21.20;;
36253;SDS011;22291;52.250;21.228;2022-12-04T15:09:26;40.28;;;21.48;;
36253;SDS011;22291;52.250;21.228;2022-12-04T15:12:22;35.35;;;17.92;;
36253;SDS011;22291;52.250;21.228;2022-12-04T15:15:01;33.78;;;18.80;;
36253;SDS011;22291;52.250;21.228;2022-12-04T15:18:00;37.23;;;20.68;;
36253;SDS011;22291;52.250;21.228;2022-12-04T15:23:27;36.85;;;21.50;;
36253;SDS011;22291;52.250;21.228;2022-12-04T15:26:10;46.70;;;24.95;;
36253;SDS011;22291;52.250;21.228;2022-12-04T15:31:14;38.80;;;21.42;;
36253;SDS011;22291;52.250;21.228;2022-12-04T15:33:44;37.60;;;20.88;;
36253;SDS011;22291;52.250;21.228;2022-12-04T15:36:19;37.33;;;20.50;;
36253;SDS011;22291;52.250;21.228;2022-12-04T15:39:23;34.78;;;20.97;;
36253;SDS011;22291;52.250;21.228;2022-12-04T15:47:30;35.60;;;20.17;;
36253;SDS011;22291;52.250;21.228;2022-12-04T15:50:19;35.80;;;19.80;;
36253;SDS011;22291;52.250;21.228;2022-12-04T15:52:48;32.48;;;18.32;;
36253;SDS011;22291;52.250;21.228;2022-12-04T15:55:24;34.15;;;19.27;;
36253;SDS011;22291;52.250;21.228;2022-12-04T15:58:01;33.25;;;19.20;;
36253;SDS011;22291;52.250;21.228;2022-12-04T16:00:34;31.42;;;17.75;;
36253;SDS011;22291;52.250;21.228;2022-12-04T16:03:05;33.02;;;18.23;;
36253;SDS011;22291;52.250;21.228;2022-12-04T16:06:00;29.80;;;18.75;;
36253;SDS011;22291;52.250;21.228;2022-12-04T16:08:32;30.35;;;17.02;;
36253;SDS011;22291;52.250;21.228;2022-12-04T16:11:06;32.65;;;19.27;;
36253;SDS011;22291;52.250;21.228;2022-12-04T16:14:02;32.25;;;18.50;;
36253;SDS011;22291;52.250;21.228;2022-12-04T16:16:50;36.73;;;20.82;;
36253;SDS011;22291;52.250;21.228;2022-12-04T16:22:07;38.67;;;21.23;;
36253;SDS011;22291;52.250;21.228;2022-12-04T16:24:46;38.75;;;22.40;;
36253;SDS011;22291;52.250;21.228;2022-12-04T16:27:20;38.02;;;21.73;;
36253;SDS011;22291;52.250;21.228;2022-12-04T16:29:51;36.80;;;20.85;;
36253;SDS011;22291;52.250;21.228;2022-12-04T16:32:25;39.45;;;19.95;;
36253;SDS011;22291;52.250;21.228;2022-12-04T16:34:56;36.85;;;19.57;;
36253;SDS011;22291;52.250;21.228;2022-12-04T16:37:25;31.60;;;19.05;;
36253;SDS011;22291;52.250;21.228;2022-12-04T16:39:56;33.78;;;18.80;;
36253;SDS011;22291;52.250;21.228;2022-12-04T16:42:34;30.02;;;18.12;;
36253;SDS011;22291;52.250;21.228;2022-12-04T16:45:00;27.70;;;16.57;;
36253;SDS011;22291;52.250;21.228;2022-12-04T16:47:31;28.70;;;17.37;;
36253;SDS011;22291;52.250;21.228;2022-12-04T16:49:58;32.03;;;18.45;;
36253;SDS011;22291;52.250;21.228;2022-12-04T16:52:25;28.85;;;17.02;;
36253;SDS011;22291;52.250;21.228;2022-12-04T16:54:52;32.17;;;18.30;;
36253;SDS011;22291;52.250;21.228;2022-12-04T16:57:19;28.42;;;16.57;;
36253;SDS011;22291;52.250;21.228;2022-12-04T16:59:45;32.40;;;19.23;;
36253;SDS011;22291;52.250;21.228;2022-12-04T17:02:16;29.70;;;18.60;;
36253;SDS011;22291;52.250;21.228;2022-12-04T17:04:47;32.05;;;17.77;;
36253;SDS011;22291;52.250;21.228;2022-12-04T17:07:14;35.38;;;19.77;;
36253;SDS011;22291;52.250;21.228;2022-12-04T17:09:40;34.70;;;18.80;;
36253;SDS011;22291;52.250;21.228;2022-12-04T17:12:07;33.95;;;19.10;;
36253;SDS011;22291;52.250;21.228;2022-12-04T17:14:34;33.23;;;18.05;;
36253;SDS011;22291;52.250;21.228;2022-12-04T17:17:00;33.83;;;19.20;;
36253;SDS011;22291;52.250;21.228;2022-12-04T17:19:27;31.97;;;18.05;;
36253;SDS011;22291;52.250;21.228;2022-12-04T17:21:53;31.20;;;19.00;;